createdAt,value
2022-08-14T00:02:27.788Z,100.00
2022-08-14T00:05:00.303Z,100.00
2022-08-14T00:07:29.048Z,100.00
2022-08-14T00:10:49.129Z,100.00
2022-08-14T00:12:56.921Z,100.00
2022-08-14T00:15:43.643Z,100.00
2022-08-14T00:18:30.738Z,100.00
2022-08-14T00:21:11.009Z,100.00
2022-08-14T00:23:41.203Z,100.00
2022-08-14T00:26:23.247Z,100.00
2022-08-14T00:28:54.197Z,100.00
2022-08-14T00:31:35.104Z,100.00
2022-08-14T00:34:36.400Z,100.00
2022-08-14T00:37:01.918Z,100.00
2022-08-14T00:39:31.195Z,100.00
2022-08-14T00:42:01.023Z,100.00
2022-08-14T00:44:32.434Z,100.00
2022-08-14T00:47:06.562Z,100.00
2022-08-14T00:49:43.223Z,100.00
2022-08-14T00:52:17.679Z,100.00
2022-08-14T00:54:58.242Z,100.00
2022-08-14T00:57:35.432Z,100.00
2022-08-14T01:00:34.031Z,100.00
2022-08-14T01:03:05.921Z,100.00
2022-08-14T01:05:51.026Z,100.00
2022-08-14T01:08:52.361Z,100.00
2022-08-14T01:11:19.121Z,100.00
2022-08-14T01:13:55.786Z,100.00
2022-08-14T01:16:31.613Z,100.00
2022-08-14T01:19:19.761Z,100.00
2022-08-14T01:21:53.286Z,100.00
2022-08-14T01:24:34.156Z,100.00
2022-08-14T01:27:05.508Z,100.00
2022-08-14T01:29:59.078Z,100.00
2022-08-14T01:32:26.582Z,100.00
2022-08-14T01:35:18.510Z,100.00
2022-08-14T01:37:56.472Z,100.00
2022-08-14T01:40:36.833Z,100.00
2022-08-14T01:43:15.875Z,100.00
2022-08-14T01:45:57.837Z,100.00
2022-08-14T01:48:37.009Z,100.00
2022-08-14T01:51:19.147Z,100.00
2022-08-14T01:53:55.367Z,100.00
2022-08-14T01:56:37.482Z,100.00
2022-08-14T01:59:22.192Z,100.00
2022-08-14T02:01:59.081Z,100.00
2022-08-14T02:04:54.686Z,100.00
2022-08-14T02:07:34.886Z,100.00
2022-08-14T02:10:15.978Z,100.00
2022-08-14T02:12:54.309Z,100.00
2022-08-14T02:15:27.022Z,100.00
2022-08-14T02:17:55.499Z,100.00
2022-08-14T02:20:24.950Z,100.00
2022-08-14T02:22:54.933Z,100.00
2022-08-14T02:25:24.087Z,100.00
2022-08-14T02:28:22.506Z,100.00
2022-08-14T02:30:48.054Z,100.00
2022-08-14T02:33:22.661Z,100.00
2022-08-14T02:35:53.349Z,100.00
2022-08-14T02:38:30.267Z,100.00
2022-08-14T02:41:08.843Z,100.00
2022-08-14T02:43:46.438Z,100.00
2022-08-14T02:46:20.704Z,100.00
2022-08-14T02:49:03.170Z,100.00
2022-08-14T02:51:36.551Z,100.00
2022-08-14T02:54:09.050Z,100.00
2022-08-14T02:57:15.581Z,100.00
2022-08-14T02:59:33.880Z,100.00
2022-08-14T03:02:04.481Z,100.00
2022-08-14T03:04:34.579Z,100.00
2022-08-14T03:07:07.499Z,100.00
2022-08-14T03:09:42.151Z,100.00
2022-08-14T03:12:32.461Z,100.00
2022-08-14T03:15:16.437Z,100.00
2022-08-14T03:17:57.432Z,100.00
2022-08-14T03:20:30.524Z,100.00
2022-08-14T03:23:03.026Z,100.00
2022-08-14T03:25:37.821Z,100.00
2022-08-14T03:28:14.731Z,100.00
2022-08-14T03:30:59.897Z,100.00
2022-08-14T03:33:37.832Z,100.00
2022-08-14T03:37:29.662Z,100.00
2022-08-14T03:39:14.262Z,100.00
2022-08-14T03:41:53.599Z,100.00
2022-08-14T03:45:18.632Z,100.00
2022-08-14T03:47:12.294Z,100.00
2022-08-14T03:49:50.158Z,100.00
2022-08-14T03:52:38.954Z,100.00
2022-08-14T03:55:12.276Z,100.00
2022-08-14T03:57:42.752Z,100.00
2022-08-14T04:00:42.621Z,100.00
2022-08-14T04:03:07.859Z,100.00
2022-08-14T04:05:43.514Z,100.00
2022-08-14T04:08:29.750Z,100.00
2022-08-14T04:11:01.638Z,100.00
2022-08-14T04:13:34.049Z,100.00
2022-08-14T04:16:12.404Z,100.00
2022-08-14T04:18:44.877Z,100.00
2022-08-14T04:21:17.106Z,100.00
2022-08-14T04:23:57.030Z,100.00
2022-08-14T04:26:42.405Z,100.00
2022-08-14T04:29:15.244Z,100.00
2022-08-14T04:32:57.795Z,100.00
2022-08-14T04:34:41.835Z,100.00
2022-08-14T04:37:29.192Z,100.00
2022-08-14T04:40:16.481Z,100.00
2022-08-14T04:43:03.566Z,100.00
2022-08-14T04:45:40.882Z,100.00
2022-08-14T04:48:39.480Z,100.00
2022-08-14T04:51:14.571Z,100.00
2022-08-14T04:53:49.499Z,100.00
2022-08-14T04:56:30.750Z,100.00
2022-08-14T04:59:10.693Z,100.00
2022-08-14T05:01:45.309Z,100.00
2022-08-14T05:04:21.337Z,100.00
2022-08-14T05:06:53.619Z,100.00
2022-08-14T05:09:29.145Z,100.00
2022-08-14T05:13:11.078Z,100.00
2022-08-14T05:14:53.597Z,100.00
2022-08-14T05:17:31.941Z,100.00
2022-08-14T05:21:04.911Z,100.00
2022-08-14T05:23:03.643Z,100.00
2022-08-14T05:25:34.343Z,100.00
2022-08-14T05:28:19.286Z,100.00
2022-08-14T05:30:56.232Z,100.00
2022-08-14T05:33:28.482Z,100.00
2022-08-14T05:36:01.449Z,100.00
2022-08-14T05:38:39.230Z,100.00
2022-08-14T05:41:15.109Z,100.00
2022-08-14T05:43:48.187Z,100.00
2022-08-14T05:46:23.089Z,100.00
2022-08-14T05:48:57.439Z,100.00
2022-08-14T05:51:28.502Z,100.00
2022-08-14T05:54:12.772Z,100.00
2022-08-14T05:56:48.174Z,100.00
2022-08-14T05:59:16.915Z,100.00
2022-08-14T06:01:45.500Z,100.00
2022-08-14T06:04:15.240Z,100.00
2022-08-14T06:06:44.426Z,100.00
2022-08-14T06:09:12.970Z,100.00
2022-08-14T06:11:41.837Z,100.00
2022-08-14T06:14:21.185Z,100.00
2022-08-14T06:16:53.264Z,100.00
2022-08-14T06:19:23.278Z,100.00
2022-08-14T06:21:58.971Z,100.00
2022-08-14T06:24:30.414Z,100.00
2022-08-14T06:27:06.440Z,100.00
2022-08-14T06:29:39.708Z,100.00
2022-08-14T06:32:37.246Z,100.00
2022-08-14T06:35:03.292Z,100.00
2022-08-14T06:37:53.121Z,100.00
2022-08-14T06:40:27.876Z,100.00
2022-08-14T06:43:03.283Z,100.00
2022-08-14T06:45:34.021Z,100.00
2022-08-14T06:48:06.234Z,100.00
2022-08-14T06:50:41.223Z,100.00
2022-08-14T06:53:16.680Z,100.00
2022-08-14T06:55:57.918Z,100.00
2022-08-14T06:58:31.480Z,100.00
2022-08-14T07:01:27.190Z,100.00
2022-08-14T07:04:22.864Z,100.00
2022-08-14T07:06:54.755Z,100.00
2022-08-14T07:09:44.259Z,100.00
2022-08-14T07:12:54.962Z,100.00
2022-08-14T07:15:07.244Z,100.00
2022-08-14T07:17:52.223Z,100.00
2022-08-14T07:20:30.542Z,100.00
2022-08-14T07:23:08.330Z,100.00
2022-08-14T07:25:42.066Z,100.00
2022-08-14T07:28:21.108Z,100.00
2022-08-14T07:31:05.269Z,100.00
2022-08-14T07:33:51.694Z,100.00
2022-08-14T07:36:26.430Z,100.00
2022-08-14T07:39:03.051Z,100.00
2022-08-14T07:41:42.316Z,100.00
2022-08-14T07:44:32.333Z,100.00
2022-08-14T07:47:03.713Z,100.00
2022-08-14T07:49:34.357Z,100.00
2022-08-14T07:52:04.172Z,100.00
2022-08-14T07:54:32.628Z,100.00
2022-08-14T07:57:06.598Z,100.00
2022-08-14T07:59:43.691Z,100.00
2022-08-14T08:02:19.052Z,100.00
2022-08-14T08:04:58.862Z,100.00
2022-08-14T08:07:31.495Z,100.00
2022-08-14T08:10:45.971Z,100.00
2022-08-14T08:13:24.213Z,100.00
2022-08-14T08:15:59.365Z,100.00
2022-08-14T08:18:29.146Z,100.00
2022-08-14T08:21:00.170Z,100.00
2022-08-14T08:23:40.077Z,100.00
2022-08-14T08:26:12.013Z,100.00
2022-08-14T08:28:43.673Z,100.00
2022-08-14T08:31:13.798Z,100.00
2022-08-14T08:33:44.898Z,100.00
2022-08-14T08:36:19.270Z,100.00
2022-08-14T08:39:16.446Z,100.00
2022-08-14T08:41:50.517Z,99.92
2022-08-14T08:44:32.045Z,99.91
2022-08-14T08:47:06.842Z,99.33
2022-08-14T08:49:59.736Z,99.12
2022-08-14T08:52:32.379Z,99.31
2022-08-14T08:55:04.910Z,99.68
2022-08-14T08:57:38.016Z,99.22
2022-08-14T09:00:27.052Z,99.23
2022-08-14T09:02:59.845Z,99.11
2022-08-14T09:05:29.016Z,98.79
2022-08-14T09:08:30.928Z,97.85
2022-08-14T09:11:20.014Z,97.10
2022-08-14T09:13:54.371Z,96.29
2022-08-14T09:16:26.001Z,95.64
2022-08-14T09:18:55.990Z,95.36
2022-08-14T09:21:31.424Z,94.71
2022-08-14T09:24:27.953Z,94.55
2022-08-14T09:26:51.035Z,94.39
2022-08-14T09:29:23.434Z,94.17
2022-08-14T09:32:00.983Z,93.93
2022-08-14T09:34:59.062Z,93.38
2022-08-14T09:37:49.123Z,93.36
2022-08-14T09:40:55.991Z,92.98
2022-08-14T09:43:52.189Z,92.68
2022-08-14T09:46:25.662Z,92.66
2022-08-14T09:49:12.139Z,93.14
2022-08-14T09:51:58.407Z,93.21
2022-08-14T09:54:41.075Z,93.74
2022-08-14T09:57:24.141Z,93.90
2022-08-14T09:59:57.099Z,93.91
2022-08-14T10:02:31.833Z,93.85
2022-08-14T10:05:12.009Z,93.54
2022-08-14T10:07:53.790Z,94.24
2022-08-14T10:10:41.870Z,94.50
2022-08-14T10:13:26.713Z,95.75
2022-08-14T10:16:00.330Z,97.19
2022-08-14T10:18:28.979Z,98.80
2022-08-14T10:21:01.600Z,99.88
2022-08-14T10:23:43.572Z,100.00
2022-08-14T10:26:22.744Z,100.00
2022-08-14T10:29:18.224Z,100.00
2022-08-14T10:32:01.845Z,100.00
2022-08-14T10:34:36.757Z,100.00
2022-08-14T10:37:14.734Z,100.00
2022-08-14T10:40:05.277Z,100.00
2022-08-14T10:42:41.747Z,100.00
2022-08-14T10:45:21.637Z,100.00
2022-08-14T10:48:08.912Z,100.00
2022-08-14T10:50:46.589Z,100.00
2022-08-14T10:53:15.592Z,100.00
2022-08-14T10:55:45.754Z,100.00
2022-08-14T10:58:15.706Z,100.00
2022-08-14T11:00:57.560Z,100.00
2022-08-14T11:03:56.399Z,100.00
2022-08-14T11:06:27.279Z,100.00
2022-08-14T11:08:56.734Z,100.00
2022-08-14T11:11:28.538Z,100.00
2022-08-14T11:14:06.696Z,100.00
2022-08-14T11:16:40.656Z,100.00
2022-08-14T11:19:12.178Z,100.00
2022-08-14T11:21:45.773Z,100.00
2022-08-14T11:24:50.862Z,100.00
2022-08-14T11:27:08.206Z,100.00
2022-08-14T11:29:40.379Z,99.34
2022-08-14T11:32:09.763Z,98.24
2022-08-14T11:34:38.692Z,98.06
2022-08-14T11:37:21.545Z,96.34
2022-08-14T11:40:02.454Z,94.97
2022-08-14T11:42:58.845Z,94.95
2022-08-14T11:45:26.468Z,94.35
2022-08-14T11:48:10.750Z,93.64
2022-08-14T11:50:43.359Z,93.57
2022-08-14T11:53:27.054Z,94.02
2022-08-14T11:56:06.157Z,93.72
2022-08-14T11:58:38.014Z,94.69
2022-08-14T12:01:09.570Z,95.06
2022-08-14T12:03:52.132Z,95.17
2022-08-14T12:06:29.064Z,95.32
2022-08-14T12:09:08.902Z,95.69
2022-08-14T12:11:46.981Z,95.86
2022-08-14T12:14:34.819Z,96.94
2022-08-14T12:17:12.648Z,97.99
2022-08-14T12:19:58.984Z,99.06
2022-08-14T12:22:35.942Z,99.95
2022-08-14T12:25:13.014Z,100.00
2022-08-14T12:27:53.958Z,100.00
2022-08-14T12:30:43.682Z,99.93
2022-08-14T12:33:33.015Z,99.74
2022-08-14T12:36:10.540Z,98.80
2022-08-14T12:38:44.989Z,97.94
2022-08-14T12:41:22.084Z,97.79
2022-08-14T12:43:57.021Z,98.06
2022-08-14T12:46:35.110Z,97.25
2022-08-14T12:49:16.073Z,95.02
2022-08-14T12:51:57.290Z,93.49
2022-08-14T12:54:28.398Z,91.69
2022-08-14T12:57:39.419Z,90.28
2022-08-14T13:00:25.590Z,89.64
2022-08-14T13:02:56.895Z,90.67
2022-08-14T13:05:32.329Z,91.72
2022-08-14T13:08:10.774Z,90.70
2022-08-14T13:10:58.286Z,89.07
2022-08-14T13:13:34.913Z,89.10
2022-08-14T13:16:20.596Z,89.77
2022-08-14T13:18:59.053Z,90.21
2022-08-14T13:21:31.284Z,90.64
2022-08-14T13:24:22.165Z,91.16
2022-08-14T13:26:59.271Z,91.90
2022-08-14T13:29:31.649Z,92.23
2022-08-14T13:32:00.986Z,92.66
2022-08-14T13:34:29.868Z,93.40
2022-08-14T13:37:04.154Z,94.60
2022-08-14T13:39:36.171Z,94.65
2022-08-14T13:42:13.862Z,95.22
2022-08-14T13:44:43.174Z,95.99
2022-08-14T13:47:14.858Z,96.26
2022-08-14T13:49:57.855Z,96.34
2022-08-14T13:52:51.285Z,96.64
2022-08-14T13:55:29.685Z,96.34
2022-08-14T13:58:03.250Z,96.27
2022-08-14T14:00:53.466Z,96.33
2022-08-14T14:03:30.198Z,96.44
2022-08-14T14:05:59.270Z,96.94
2022-08-14T14:08:46.065Z,97.08
2022-08-14T14:11:24.248Z,96.87
2022-08-14T14:13:59.632Z,97.15
2022-08-14T14:16:30.818Z,98.95
2022-08-14T14:19:09.635Z,99.52
2022-08-14T14:21:40.543Z,98.02
2022-08-14T14:24:14.979Z,96.87
2022-08-14T14:26:50.706Z,95.89
2022-08-14T14:29:25.982Z,95.00
2022-08-14T14:31:58.734Z,94.32
2022-08-14T14:34:33.441Z,93.01
2022-08-14T14:37:04.854Z,92.27
2022-08-14T14:39:37.576Z,90.57
2022-08-14T14:42:13.785Z,87.92
2022-08-14T14:44:53.269Z,85.36
2022-08-14T14:47:25.822Z,83.47
2022-08-14T14:49:56.521Z,82.44
2022-08-14T14:52:27.247Z,80.75
2022-08-14T14:54:58.781Z,79.41
2022-08-14T14:57:35.076Z,78.44
2022-08-14T15:00:19.539Z,77.68
2022-08-14T15:02:53.474Z,77.12
2022-08-14T15:05:28.417Z,77.41
2022-08-14T15:07:57.921Z,77.16
2022-08-14T15:10:31.132Z,77.71
2022-08-14T15:13:07.277Z,78.74
2022-08-14T15:15:37.822Z,80.09
2022-08-14T15:18:36.302Z,81.05
2022-08-14T15:20:58.239Z,81.66
2022-08-14T15:23:32.253Z,81.99
2022-08-14T15:26:24.245Z,81.93
2022-08-14T15:29:04.887Z,81.81
2022-08-14T15:31:36.095Z,81.24
2022-08-14T15:34:45.969Z,80.77
2022-08-14T15:37:01.050Z,79.67
2022-08-14T15:39:33.771Z,79.01
2022-08-14T15:42:14.509Z,78.57
2022-08-14T15:44:58.107Z,77.31
2022-08-14T15:47:33.174Z,76.07
2022-08-14T15:50:08.890Z,75.05
2022-08-14T15:52:38.436Z,74.35
2022-08-14T15:55:15.066Z,73.76
2022-08-14T15:58:01.625Z,73.45
2022-08-14T16:00:55.403Z,72.64
2022-08-14T16:03:27.778Z,72.66
2022-08-14T16:06:10.964Z,73.57
2022-08-14T16:08:58.698Z,74.71
2022-08-14T16:11:32.819Z,75.24
2022-08-14T16:14:01.930Z,75.63
2022-08-14T16:16:51.742Z,76.53
2022-08-14T16:19:24.946Z,77.57
2022-08-14T16:22:02.514Z,78.69
2022-08-14T16:25:00.495Z,79.63
2022-08-14T16:27:33.696Z,79.60
2022-08-14T16:30:20.782Z,78.47
2022-08-14T16:32:57.417Z,77.92
2022-08-14T16:35:43.433Z,76.58
2022-08-14T16:38:45.906Z,76.24
2022-08-14T16:41:22.245Z,76.44
2022-08-14T16:44:02.387Z,76.96
2022-08-14T16:46:43.010Z,77.31
2022-08-14T16:49:20.031Z,77.39
2022-08-14T16:51:54.956Z,76.23
2022-08-14T16:54:35.287Z,75.84
2022-08-14T16:57:27.940Z,76.48
2022-08-14T17:00:07.430Z,76.95
2022-08-14T17:03:01.704Z,76.40
2022-08-14T17:05:37.390Z,76.22
2022-08-14T17:08:41.991Z,76.52
2022-08-14T17:11:10.808Z,76.34
2022-08-14T17:13:58.639Z,75.20
2022-08-14T17:16:37.490Z,75.11
2022-08-14T17:19:09.767Z,75.60
2022-08-14T17:21:47.351Z,76.57
2022-08-14T17:24:57.174Z,77.72
2022-08-14T17:27:18.440Z,78.97
2022-08-14T17:29:56.689Z,80.32
2022-08-14T17:32:44.199Z,81.56
2022-08-14T17:35:58.002Z,82.76
2022-08-14T17:38:38.205Z,84.27
2022-08-14T17:41:27.109Z,85.29
2022-08-14T17:44:12.796Z,86.37
2022-08-14T17:46:50.291Z,86.97
2022-08-14T17:49:31.949Z,87.93
2022-08-14T17:52:17.026Z,88.64
2022-08-14T17:54:52.890Z,88.99
2022-08-14T17:57:35.518Z,89.50
2022-08-14T18:00:17.636Z,89.87
2022-08-14T18:02:50.351Z,90.36
2022-08-14T18:05:23.463Z,90.94
2022-08-14T18:08:34.431Z,91.55
2022-08-14T18:11:00.505Z,92.22
2022-08-14T18:13:51.103Z,92.57
2022-08-14T18:16:22.632Z,93.41
2022-08-14T18:18:52.115Z,94.08
2022-08-14T18:21:40.315Z,94.51
2022-08-14T18:24:29.119Z,95.12
2022-08-14T18:27:23.082Z,95.49
2022-08-14T18:30:00.338Z,96.14
2022-08-14T18:32:55.084Z,96.93
2022-08-14T18:35:45.905Z,97.26
2022-08-14T18:38:46.446Z,97.59
2022-08-14T18:41:36.767Z,98.08
2022-08-14T18:44:10.150Z,98.42
2022-08-14T18:47:15.040Z,98.98
2022-08-14T18:49:53.200Z,99.39
2022-08-14T18:52:49.321Z,99.76
2022-08-14T18:55:20.953Z,100.00
2022-08-14T18:57:58.101Z,100.00
2022-08-14T19:00:32.445Z,100.00
2022-08-14T19:03:04.357Z,100.00
2022-08-14T19:05:47.311Z,100.00
2022-08-14T19:08:22.129Z,100.00
2022-08-14T19:11:00.825Z,100.00
2022-08-14T19:13:48.059Z,100.00
2022-08-14T19:16:26.268Z,100.00
2022-08-14T19:19:01.431Z,100.00
2022-08-14T19:21:43.676Z,100.00
2022-08-14T19:24:27.844Z,100.00
2022-08-14T19:27:24.830Z,100.00
2022-08-14T19:30:19.383Z,100.00
2022-08-14T19:32:56.149Z,100.00
2022-08-14T19:35:48.689Z,100.00
2022-08-14T19:38:44.271Z,100.00
2022-08-14T19:41:29.419Z,100.00
2022-08-14T19:44:32.326Z,100.00
2022-08-14T19:47:04.764Z,100.00
2022-08-14T19:50:30.230Z,100.00
2022-08-14T19:52:39.540Z,100.00
2022-08-14T19:55:18.247Z,100.00
2022-08-14T19:57:57.923Z,100.00
2022-08-14T20:00:30.191Z,100.00
2022-08-14T20:03:10.884Z,100.00
2022-08-14T20:05:46.019Z,100.00
2022-08-14T20:10:59.771Z,100.00
2022-08-14T20:12:00.432Z,100.00
2022-08-14T20:14:29.424Z,100.00
2022-08-14T20:17:06.240Z,100.00
2022-08-14T20:19:37.218Z,100.00
2022-08-14T20:22:37.146Z,100.00
2022-08-14T20:24:56.524Z,100.00
2022-08-14T20:27:33.295Z,100.00
2022-08-14T20:30:33.597Z,100.00
2022-08-14T20:33:11.074Z,100.00
2022-08-14T20:35:40.002Z,100.00
2022-08-14T20:38:32.508Z,100.00
2022-08-14T20:41:09.476Z,100.00
2022-08-14T20:44:02.941Z,100.00
2022-08-14T20:46:39.039Z,100.00
2022-08-14T20:49:18.857Z,100.00
2022-08-14T20:51:58.418Z,100.00
2022-08-14T20:54:36.847Z,100.00
2022-08-14T20:57:20.104Z,100.00
2022-08-14T20:59:52.918Z,100.00
2022-08-14T21:02:46.394Z,100.00
2022-08-14T21:05:33.313Z,100.00
2022-08-14T21:08:08.077Z,100.00
2022-08-14T21:10:44.791Z,100.00
2022-08-14T21:13:27.318Z,100.00
2022-08-14T21:16:33.088Z,100.00
2022-08-14T21:19:00.204Z,100.00
2022-08-14T21:21:41.149Z,100.00
2022-08-14T21:24:38.659Z,100.00
2022-08-14T21:27:12.861Z,100.00
2022-08-14T21:29:55.950Z,100.00
2022-08-14T21:32:36.017Z,100.00
2022-08-14T21:35:15.627Z,100.00
2022-08-14T21:37:47.678Z,100.00
2022-08-14T21:40:40.037Z,100.00
2022-08-14T21:43:18.631Z,100.00
2022-08-14T21:45:53.951Z,100.00
2022-08-14T21:48:32.019Z,100.00
2022-08-14T21:51:54.172Z,100.00
2022-08-14T21:54:00.321Z,100.00
2022-08-14T21:56:37.659Z,100.00
2022-08-14T21:59:17.443Z,100.00
2022-08-14T22:02:00.802Z,100.00
2022-08-14T22:04:41.478Z,100.00
2022-08-14T22:07:16.864Z,100.00
2022-08-14T22:09:55.504Z,100.00
2022-08-14T22:12:47.325Z,100.00
2022-08-14T22:15:18.461Z,100.00
2022-08-14T22:17:54.206Z,100.00
2022-08-14T22:20:28.787Z,100.00
2022-08-14T22:23:03.207Z,100.00
2022-08-14T22:25:41.249Z,100.00
2022-08-14T22:28:20.473Z,100.00
2022-08-14T22:30:55.061Z,100.00
2022-08-14T22:33:31.082Z,100.00
2022-08-14T22:36:25.544Z,100.00
2022-08-14T22:38:55.962Z,100.00
2022-08-14T22:41:30.529Z,100.00
2022-08-14T22:44:12.360Z,100.00
2022-08-14T22:46:43.441Z,100.00
2022-08-14T22:49:16.890Z,100.00
2022-08-14T22:52:32.096Z,100.00
2022-08-14T22:54:56.331Z,100.00
2022-08-14T22:57:37.886Z,100.00
2022-08-14T23:00:25.695Z,100.00
2022-08-14T23:03:04.062Z,100.00
2022-08-14T23:05:39.871Z,100.00
2022-08-14T23:09:00.464Z,100.00
2022-08-14T23:11:03.084Z,100.00
2022-08-14T23:13:33.112Z,100.00
2022-08-14T23:16:01.706Z,100.00
2022-08-14T23:18:30.435Z,100.00
2022-08-14T23:20:58.994Z,100.00
2022-08-14T23:23:28.641Z,100.00
2022-08-14T23:26:47.110Z,100.00
2022-08-14T23:28:58.438Z,100.00
2022-08-14T23:31:35.897Z,100.00
2022-08-14T23:34:11.407Z,100.00
2022-08-14T23:36:52.993Z,100.00
2022-08-14T23:39:33.193Z,100.00
2022-08-14T23:42:09.068Z,100.00
2022-08-14T23:44:39.424Z,100.00
2022-08-14T23:47:26.631Z,100.00
2022-08-14T23:50:03.530Z,100.00
2022-08-14T23:52:56.256Z,100.00
2022-08-14T23:55:33.349Z,100.00
2022-08-14T23:58:01.904Z,100.00
